Time;durP1;ratioP1;P1;durP2;ratioP2;P2;SDS_P1;SDS_P2;PMS_P1;PMS_P2;Temp;Humidity;BMP_temperature;BMP_pressure;BME280_temperature;BME280_humidity;BME280_pressure;Samples;Min_cycle;Max_cycle;Signal;HPM_P1;HPM_P2
2024/01/31 00:02:08;;;;;;;0.70;0.70;;;2.50;99.90;;;;;;5112876;28;20194;-74
2024/01/31 00:04:37;;;;;;;2.10;1.17;;;2.50;99.90;;;;;;5112769;28;20278;-75
2024/01/31 00:07:02;;;;;;;0.70;0.70;;;2.50;99.90;;;;;;5112452;28;20210;-74
2024/01/31 00:09:28;;;;;;;0.70;0.70;;;2.50;99.90;;;;;;5115212;28;20262;-73
2024/01/31 00:12:04;;;;;;;0.70;0.70;;;2.50;99.90;;;;;;5115386;28;20188;-74
2024/01/31 00:14:30;;;;;;;0.90;0.90;;;2.50;99.90;;;;;;5115373;28;20588;-74
2024/01/31 00:17:36;;;;;;;0.60;0.60;;;2.50;99.90;;;;;;5115437;28;20202;-74
2024/01/31 00:20:39;;;;;;;0.70;0.70;;;2.50;99.90;;;;;;5097871;28;20223;-74
2024/01/31 00:23:48;;;;;;;;;;;;;;;;;;;;;
2024/01/31 00:26:16;;;;;;;0.68;0.68;;;2.50;99.90;;;;;;5095750;28;20287;-75
2024/01/31 00:29:20;;;;;;;1.75;1.60;;;2.40;99.90;;;;;;5095922;28;20278;-74
2024/01/31 00:31:49;;;;;;;0.60;0.60;;;2.40;99.90;;;;;;5094488;28;20196;-74
2024/01/31 00:34:26;;;;;;;0.70;0.70;;;2.50;99.90;;;;;;5115126;28;20609;-74
2024/01/31 00:36:52;;;;;;;0.68;0.68;;;2.40;99.90;;;;;;5115365;28;20207;-74
2024/01/31 00:39:20;;;;;;;10.70;1.75;;;2.40;99.90;;;;;;5116356;28;20195;-74
2024/01/31 00:41:47;;;;;;;1.30;0.93;;;2.40;99.90;;;;;;5116273;28;20579;-75
2024/01/31 00:44:57;;;;;;;0.70;0.70;;;2.40;99.90;;;;;;5114146;28;20203;-74
2024/01/31 00:47:36;;;;;;;0.60;0.60;;;2.50;99.90;;;;;;5094744;28;20200;-74
2024/01/31 00:50:02;;;;;;;0.85;0.80;;;2.40;99.90;;;;;;5111763;28;20196;-74
2024/01/31 00:52:28;;;;;;;0.50;0.50;;;2.50;99.90;;;;;;5112458;28;20187;-74
2024/01/31 00:55:00;;;;;;;0.70;0.70;;;2.40;99.90;;;;;;5112248;28;20311;-74
2024/01/31 00:57:30;;;;;;;1.25;1.15;;;2.50;99.90;;;;;;5113251;28;20231;-74
2024/01/31 00:59:56;;;;;;;0.70;0.70;;;2.50;99.90;;;;;;5114997;28;20598;-74
2024/01/31 01:02:25;;;;;;;0.70;0.70;;;2.50;99.90;;;;;;5115249;28;20214;-74
2024/01/31 01:04:55;;;;;;;0.90;0.90;;;2.50;99.90;;;;;;5115072;28;20203;-74
2024/01/31 01:07:21;;;;;;;0.63;0.63;;;2.40;99.90;;;;;;5114877;28;20200;-74
2024/01/31 01:09:47;;;;;;;0.68;0.68;;;2.50;99.90;;;;;;5116018;28;20600;-74
2024/01/31 01:12:13;;;;;;;0.60;0.60;;;2.40;99.90;;;;;;5116254;28;20184;-74
2024/01/31 01:14:59;;;;;;;0.70;0.70;;;2.40;99.90;;;;;;5114015;28;20207;-74
2024/01/31 01:17:25;;;;;;;0.60;0.60;;;2.50;99.90;;;;;;5114282;28;20561;-74
2024/01/31 01:19:52;;;;;;;0.70;0.70;;;2.50;99.90;;;;;;5116127;28;20563;-74
2024/01/31 01:22:18;;;;;;;0.70;0.70;;;2.50;99.90;;;;;;5115949;28;20192;-74
2024/01/31 01:24:45;;;;;;;0.70;0.70;;;2.40;99.90;;;;;;5114796;28;20211;-73
2024/01/31 01:27:15;;;;;;;0.75;0.75;;;2.40;99.90;;;;;;5114611;28;20203;-73
2024/01/31 01:29:40;;;;;;;0.70;0.70;;;2.40;99.90;;;;;;5114060;28;20289;-74
2024/01/31 01:32:06;;;;;;;0.60;0.60;;;2.40;99.90;;;;;;5114536;28;20294;-74
2024/01/31 01:34:32;;;;;;;0.80;0.80;;;2.40;99.90;;;;;;5115544;28;20211;-73
2024/01/31 01:36:58;;;;;;;0.82;0.82;;;2.40;99.90;;;;;;5114307;28;20192;-73
2024/01/31 01:39:23;;;;;;;0.75;0.75;;;2.40;99.90;;;;;;5115316;28;20600;-74
2024/01/31 01:41:49;;;;;;;0.73;0.73;;;2.40;99.90;;;;;;5115567;28;20195;-74
2024/01/31 01:44:16;;;;;;;1.92;1.83;;;2.40;99.90;;;;;;5115513;28;20187;-73
2024/01/31 01:46:43;;;;;;;0.85;0.85;;;2.40;99.90;;;;;;5114090;28;20205;-73
2024/01/31 01:49:19;;;;;;;0.50;0.50;;;2.40;99.90;;;;;;5115492;28;20687;-73
2024/01/31 01:51:45;;;;;;;0.80;0.80;;;2.40;99.90;;;;;;5114208;28;20282;-73
2024/01/31 01:54:13;;;;;;;0.57;0.57;;;2.30;99.90;;;;;;5115286;28;20691;-73
2024/01/31 01:56:45;;;;;;;0.70;0.70;;;2.30;99.90;;;;;;5115012;28;20271;-73
2024/01/31 01:59:12;;;;;;;0.60;0.60;;;2.20;99.90;;;;;;5115499;28;20190;-73
2024/01/31 02:01:39;;;;;;;0.60;0.60;;;2.20;99.90;;;;;;5115029;28;20195;-73
2024/01/31 02:04:07;;;;;;;0.70;0.70;;;2.20;99.90;;;;;;5115162;28;20654;-73
2024/01/31 02:06:33;;;;;;;0.60;0.60;;;2.10;99.90;;;;;;5113620;28;20287;-73
2024/01/31 02:08:59;;;;;;;0.70;0.70;;;2.10;99.90;;;;;;5114461;28;20223;-73
2024/01/31 02:11:37;;;;;;;0.60;0.60;;;2.00;99.90;;;;;;5111112;28;20200;-73
2024/01/31 02:14:03;;;;;;;0.60;0.60;;;1.90;99.90;;;;;;5114819;28;20195;-73
2024/01/31 02:19:50;;;;;;;0.75;0.75;;;1.80;99.90;;;;;;5114273;28;20240;-73
2024/01/31 02:22:19;;;;;;;0.60;0.60;;;1.80;99.90;;;;;;5113233;28;20587;-73
2024/01/31 02:24:46;;;;;;;0.60;0.60;;;1.70;99.90;;;;;;5110459;28;20231;-73
2024/01/31 02:27:12;;;;;;;0.50;0.50;;;1.70;99.90;;;;;;5113817;28;20198;-72
2024/01/31 02:29:38;;;;;;;0.93;0.93;;;1.70;99.90;;;;;;5113432;28;20199;-72
2024/01/31 02:32:06;;;;;;;0.75;0.75;;;1.60;99.90;;;;;;5114345;28;20286;-72
2024/01/31 02:34:31;;;;;;;0.80;0.80;;;1.60;99.90;;;;;;5114100;28;20192;-72
2024/01/31 02:36:57;;;;;;;1.02;0.98;;;1.50;99.90;;;;;;5114540;28;20198;-72
2024/01/31 02:39:24;;;;;;;0.73;0.73;;;1.50;99.90;;;;;;5114038;28;20198;-72
2024/01/31 02:41:52;;;;;;;0.65;0.65;;;1.50;99.90;;;;;;5114247;28;20565;-72
2024/01/31 02:44:18;;;;;;;0.60;0.60;;;1.50;99.90;;;;;;5114049;28;20655;-73
2024/01/31 02:46:44;;;;;;;0.60;0.60;;;1.50;99.90;;;;;;5114120;28;20663;-72
2024/01/31 02:49:10;;;;;;;0.70;0.70;;;1.40;99.90;;;;;;5114118;28;20194;-72
2024/01/31 02:51:35;;;;;;;0.60;0.60;;;1.40;99.90;;;;;;5112592;28;20195;-72
2024/01/31 02:54:01;;;;;;;0.77;0.77;;;1.30;99.90;;;;;;5113768;28;20587;-72
2024/01/31 02:56:27;;;;;;;0.70;0.70;;;1.30;99.90;;;;;;5113703;28;20207;-72
2024/01/31 02:58:52;;;;;;;0.70;0.70;;;1.20;99.90;;;;;;5113899;28;20191;-72
2024/01/31 03:01:18;;;;;;;0.60;0.60;;;1.20;99.90;;;;;;5113526;28;20183;-72
2024/01/31 03:03:44;;;;;;;0.60;0.60;;;1.20;99.90;;;;;;5113991;28;20195;-72
2024/01/31 03:06:11;;;;;;;0.50;0.50;;;1.20;99.90;;;;;;5113827;28;20199;-72
2024/01/31 03:08:37;;;;;;;0.60;0.60;;;1.20;99.90;;;;;;5111774;28;20198;-72
2024/01/31 03:11:02;;;;;;;0.70;0.70;;;1.20;99.90;;;;;;5113560;28;20191;-72
2024/01/31 03:13:28;;;;;;;0.70;0.70;;;1.10;99.90;;;;;;5113269;28;20202;-72
2024/01/31 03:15:53;;;;;;;0.70;0.70;;;1.10;99.90;;;;;;5113411;28;20203;-72
2024/01/31 03:18:19;;;;;;;0.60;0.60;;;1.10;99.90;;;;;;5113393;28;20191;-72
2024/01/31 03:20:45;;;;;;;0.70;0.70;;;1.00;99.90;;;;;;5112686;28;20276;-72
2024/01/31 03:23:12;;;;;;;0.68;0.68;;;1.10;99.90;;;;;;5113545;28;20188;-71
2024/01/31 03:25:38;;;;;;;0.70;0.70;;;1.10;99.90;;;;;;5113143;28;21152;-72
2024/01/31 03:28:03;;;;;;;0.60;0.60;;;1.10;99.90;;;;;;5112981;28;20204;-71
2024/01/31 03:30:29;;;;;;;0.70;0.70;;;1.10;99.90;;;;;;5113044;28;20202;-71
2024/01/31 03:32:55;;;;;;;0.60;0.60;;;1.10;99.90;;;;;;5113319;28;20608;-71
2024/01/31 03:35:20;;;;;;;0.60;0.60;;;1.00;99.90;;;;;;5113095;28;20212;-71
2024/01/31 03:37:46;;;;;;;3.22;1.15;;;1.10;99.90;;;;;;5112061;28;20192;-71
2024/01/31 03:40:12;;;;;;;0.60;0.60;;;1.10;99.90;;;;;;5113192;28;20218;-71
2024/01/31 03:42:37;;;;;;;1.00;1.00;;;1.20;99.90;;;;;;5113098;28;20569;-71
2024/01/31 03:45:04;;;;;;;0.80;0.80;;;1.30;99.90;;;;;;5113236;28;20191;-71
2024/01/31 03:47:34;;;;;;;0.60;0.60;;;1.40;99.90;;;;;;5112874;28;20191;-71
2024/01/31 03:49:59;;;;;;;0.65;0.65;;;1.50;99.90;;;;;;5111836;28;20206;-71
2024/01/31 03:52:25;;;;;;;0.60;0.60;;;1.50;99.90;;;;;;5112911;28;20557;-72
2024/01/31 03:54:51;;;;;;;0.73;0.73;;;1.50;99.90;;;;;;5112845;28;20628;-71
2024/01/31 03:57:16;;;;;;;0.70;0.70;;;1.50;99.90;;;;;;5112911;28;20193;-73
2024/01/31 03:59:42;;;;;;;0.80;0.80;;;1.50;99.90;;;;;;5111632;28;20191;-71
2024/01/31 04:02:08;;;;;;;2.13;1.30;;;1.50;99.90;;;;;;5111941;28;20643;-71
2024/01/31 04:04:33;;;;;;;0.98;0.98;;;1.50;99.90;;;;;;5109110;28;20199;-72
2024/01/31 04:06:59;;;;;;;0.65;0.65;;;1.50;99.90;;;;;;5112861;28;20210;-71
2024/01/31 04:09:24;;;;;;;0.70;0.70;;;1.40;99.90;;;;;;5112729;28;20200;-71
2024/01/31 04:11:50;;;;;;;1.55;1.45;;;1.50;99.90;;;;;;5112656;28;20278;-72
2024/01/31 04:14:16;;;;;;;0.70;0.70;;;1.40;99.90;;;;;;5111240;28;20196;-71
2024/01/31 04:16:41;;;;;;;0.70;0.70;;;1.50;99.90;;;;;;5111252;28;20195;-71
2024/01/31 04:19:07;;;;;;;0.70;0.70;;;1.50;99.90;;;;;;5112384;28;20206;-71
2024/01/31 04:21:33;;;;;;;0.50;0.50;;;1.50;99.90;;;;;;5112699;28;20604;-71
2024/01/31 04:23:59;;;;;;;0.63;0.63;;;1.50;99.90;;;;;;5112832;28;20184;-71
2024/01/31 04:26:24;;;;;;;0.65;0.65;;;1.50;99.90;;;;;;5112615;28;20188;-71
2024/01/31 04:28:50;;;;;;;0.70;0.70;;;1.50;99.90;;;;;;5112782;28;20196;-71
2024/01/31 04:31:16;;;;;;;0.70;0.70;;;1.50;99.90;;;;;;5113261;28;20199;-70
2024/01/31 04:33:42;;;;;;;0.80;0.80;;;1.50;99.90;;;;;;5116759;28;20191;-71
2024/01/31 04:36:08;;;;;;;0.70;0.70;;;1.50;99.90;;;;;;5115484;28;20256;-70
2024/01/31 04:38:35;;;;;;;0.80;0.80;;;1.50;99.90;;;;;;5116884;28;20278;-70
2024/01/31 04:41:01;;;;;;;1.45;1.35;;;1.60;99.90;;;;;;5116785;28;20184;-70
2024/01/31 04:43:27;;;;;;;0.60;0.60;;;1.60;99.90;;;;;;5116477;28;20580;-70
2024/01/31 04:45:54;;;;;;;0.60;0.60;;;1.60;99.90;;;;;;5116716;28;20196;-71
2024/01/31 04:48:20;;;;;;;1.45;1.35;;;1.60;99.90;;;;;;5115188;28;20260;-70
2024/01/31 04:50:45;;;;;;;0.50;0.50;;;1.60;99.90;;;;;;5116466;28;20652;-70
2024/01/31 04:53:11;;;;;;;0.73;0.73;;;1.60;99.90;;;;;;5116426;28;20187;-70
2024/01/31 04:55:37;;;;;;;2.33;1.50;;;1.60;99.90;;;;;;5116046;28;20226;-71
2024/01/31 04:58:03;;;;;;;0.82;0.80;;;1.60;99.90;;;;;;5116397;28;20539;-72
2024/01/31 05:00:28;;;;;;;0.70;0.70;;;1.60;99.90;;;;;;5103702;28;20197;-72
2024/01/31 05:02:54;;;;;;;0.60;0.60;;;1.60;99.90;;;;;;5094569;28;20196;-71
2024/01/31 05:05:19;;;;;;;0.60;0.60;;;1.50;99.90;;;;;;5095582;28;20195;-72
2024/01/31 05:07:45;;;;;;;0.70;0.70;;;1.60;99.90;;;;;;5095602;28;20237;-71
2024/01/31 05:10:12;;;;;;;1.25;1.15;;;1.50;99.90;;;;;;5095485;28;20188;-72
2024/01/31 05:12:38;;;;;;;0.70;0.70;;;1.60;99.90;;;;;;5095600;28;20191;-72
2024/01/31 05:15:07;;;;;;;0.70;0.70;;;1.60;99.90;;;;;;5112990;28;20237;-72
2024/01/31 05:17:32;;;;;;;0.65;0.65;;;1.60;99.90;;;;;;5115858;28;20201;-72
2024/01/31 05:19:58;;;;;;;0.60;0.60;;;1.60;99.90;;;;;;5114692;28;20630;-72
2024/01/31 05:22:25;;;;;;;0.68;0.68;;;1.60;99.90;;;;;;5114465;28;20188;-72
2024/01/31 05:24:51;;;;;;;0.80;0.80;;;1.60;99.90;;;;;;5115836;28;20213;-72
2024/01/31 05:27:17;;;;;;;0.50;0.50;;;1.60;99.90;;;;;;5115757;28;20266;-71
2024/01/31 05:29:42;;;;;;;0.60;0.60;;;1.50;99.90;;;;;;5114527;28;20244;-72
2024/01/31 05:32:08;;;;;;;0.63;0.63;;;1.50;99.90;;;;;;5115769;28;20183;-72
2024/01/31 05:34:34;;;;;;;0.50;0.50;;;1.50;99.90;;;;;;5114181;28;20593;-72
2024/01/31 05:36:59;;;;;;;0.75;0.75;;;1.60;99.90;;;;;;5115683;28;20187;-72
2024/01/31 05:39:25;;;;;;;0.63;0.63;;;1.60;99.90;;;;;;5115375;28;20639;-72
2024/01/31 05:41:50;;;;;;;0.60;0.60;;;1.50;99.90;;;;;;5115605;28;20192;-71
2024/01/31 05:44:16;;;;;;;0.70;0.70;;;1.50;99.90;;;;;;5114901;28;20195;-72
2024/01/31 05:46:44;;;;;;;0.60;0.60;;;1.40;99.90;;;;;;5115400;28;20191;-72
2024/01/31 05:49:09;;;;;;;0.75;0.75;;;1.50;99.90;;;;;;5115374;28;20195;-72
2024/01/31 05:51:35;;;;;;;0.60;0.60;;;1.40;99.90;;;;;;5115157;28;20180;-72
2024/01/31 05:54:01;;;;;;;0.70;0.70;;;1.40;99.90;;;;;;5115130;28;20268;-72
2024/01/31 05:56:26;;;;;;;0.70;0.70;;;1.40;99.90;;;;;;5103994;28;20569;-72
2024/01/31 05:58:52;;;;;;;0.60;0.60;;;1.40;99.90;;;;;;5094772;28;20211;-72
2024/01/31 06:01:18;;;;;;;0.70;0.70;;;1.30;99.90;;;;;;5093447;28;20237;-72
2024/01/31 06:03:44;;;;;;;0.60;0.60;;;1.40;99.90;;;;;;5094634;28;20660;-71
2024/01/31 06:06:12;;;;;;;0.68;0.68;;;1.40;99.90;;;;;;5094780;28;20274;-74
2024/01/31 06:08:38;;;;;;;0.70;0.70;;;1.30;99.90;;;;;;5094541;28;20249;-72
2024/01/31 06:11:08;;;;;;;0.90;0.90;;;1.40;99.90;;;;;;5108444;28;20713;-72
2024/01/31 06:13:34;;;;;;;0.70;0.70;;;1.40;99.90;;;;;;5110080;28;20578;-72
2024/01/31 06:16:02;;;;;;;0.70;0.70;;;1.40;99.90;;;;;;5094434;28;20214;-72
2024/01/31 06:18:29;;;;;;;0.60;0.60;;;1.40;99.90;;;;;;5094332;28;20647;-72
2024/01/31 06:20:54;;;;;;;0.50;0.50;;;1.40;99.90;;;;;;5094435;28;20576;-72
2024/01/31 06:23:20;;;;;;;0.80;0.80;;;1.40;99.90;;;;;;5094117;28;20275;-72
2024/01/31 06:25:46;;;;;;;0.70;0.70;;;1.40;99.90;;;;;;5094397;28;20275;-72
2024/01/31 06:28:11;;;;;;;0.70;0.70;;;1.40;99.90;;;;;;5092979;28;20196;-72
2024/01/31 06:30:53;;;;;;;0.60;0.60;;;1.40;99.90;;;;;;5093989;28;20196;-72
2024/01/31 06:33:23;;;;;;;0.77;0.77;;;1.40;99.90;;;;;;5093974;28;20249;-72
2024/01/31 06:35:49;;;;;;;0.73;0.73;;;1.40;99.90;;;;;;5094160;28;20758;-71
2024/01/31 06:38:15;;;;;;;0.70;0.70;;;1.40;99.90;;;;;;5096063;28;20215;-72
2024/01/31 06:40:40;;;;;;;0.60;0.60;;;1.40;99.90;;;;;;5096632;28;20647;-72
2024/01/31 06:43:06;;;;;;;0.60;0.60;;;1.40;99.90;;;;;;5097062;28;20233;-72
2024/01/31 06:45:32;;;;;;;0.80;0.80;;;1.30;99.90;;;;;;5095063;28;20267;-72
2024/01/31 06:47:57;;;;;;;0.60;0.60;;;1.40;99.90;;;;;;5094338;28;20237;-71
2024/01/31 06:50:23;;;;;;;0.68;0.68;;;1.30;99.90;;;;;;5096526;28;20593;-73
2024/01/31 06:52:49;;;;;;;0.80;0.80;;;1.40;99.90;;;;;;5108302;28;20278;-72
2024/01/31 06:55:14;;;;;;;0.55;0.55;;;1.40;99.90;;;;;;5114031;28;20319;-72
2024/01/31 06:57:42;;;;;;;0.90;0.90;;;1.40;99.90;;;;;;5116037;28;20236;-70
2024/01/31 07:00:12;;;;;;;0.77;0.77;;;1.40;99.90;;;;;;5114553;28;20192;-71
2024/01/31 07:02:38;;;;;;;0.70;0.70;;;1.30;99.90;;;;;;5115394;28;20286;-72
2024/01/31 07:05:04;;;;;;;0.70;0.70;;;1.30;99.90;;;;;;5113599;28;20203;-71
2024/01/31 07:07:31;;;;;;;0.50;0.50;;;1.30;99.90;;;;;;5113929;28;20213;-72
2024/01/31 07:09:57;;;;;;;0.75;0.75;;;1.30;99.90;;;;;;5112844;28;20199;-72
2024/01/31 07:12:23;;;;;;;0.70;0.70;;;1.30;99.90;;;;;;5113650;28;20204;-72
2024/01/31 07:14:48;;;;;;;0.77;0.77;;;1.30;99.90;;;;;;5112643;28;20573;-72
2024/01/31 07:17:20;;;;;;;0.77;0.77;;;1.30;99.90;;;;;;5115330;28;20187;-72
2024/01/31 07:19:46;;;;;;;1.10;1.02;;;1.30;99.90;;;;;;5114128;28;20666;-73
2024/01/31 07:22:11;;;;;;;0.60;0.60;;;1.30;99.90;;;;;;5113973;28;20489;-71
2024/01/31 07:24:38;;;;;;;0.60;0.60;;;1.30;99.90;;;;;;5115232;28;20198;-72
2024/01/31 07:27:04;;;;;;;0.70;0.70;;;1.30;99.90;;;;;;5115484;28;20198;-71
2024/01/31 07:29:30;;;;;;;0.60;0.60;;;1.30;99.90;;;;;;5114033;28;20196;-72
2024/01/31 07:31:55;;;;;;;0.60;0.60;;;1.30;99.90;;;;;;5114713;28;20191;-71
2024/01/31 07:34:21;;;;;;;0.80;0.80;;;1.30;99.90;;;;;;5115409;28;20188;-72
2024/01/31 07:37:19;;;;;;;0.60;0.60;;;1.30;99.90;;;;;;5116195;28;20194;-73
2024/01/31 07:39:44;;;;;;;1.13;1.02;;;1.30;99.90;;;;;;5092821;28;20188;-70
2024/01/31 07:42:10;;;;;;;0.60;0.60;;;1.30;99.90;;;;;;5092963;28;20461;-70
2024/01/31 07:44:36;;;;;;;0.70;0.70;;;1.30;99.90;;;;;;5092677;28;20192;-70
2024/01/31 07:47:02;;;;;;;0.63;0.63;;;1.30;99.90;;;;;;5098768;28;20223;-70
2024/01/31 07:49:29;;;;;;;0.70;0.70;;;1.30;99.90;;;;;;5094525;28;20294;-70
2024/01/31 07:51:57;;;;;;;0.70;0.70;;;1.30;99.90;;;;;;5091732;28;20235;-70
2024/01/31 07:54:23;;;;;;;0.60;0.60;;;1.30;99.90;;;;;;5092301;28;20228;-70
2024/01/31 07:56:48;;;;;;;0.57;0.57;;;1.30;99.90;;;;;;5092796;28;20194;-70
2024/01/31 07:59:14;;;;;;;0.60;0.60;;;1.40;99.90;;;;;;5091357;28;20282;-72
2024/01/31 08:01:40;;;;;;;1.95;1.75;;;1.40;99.90;;;;;;5091229;28;20200;-70
2024/01/31 08:04:06;;;;;;;0.50;0.50;;;1.40;99.90;;;;;;5111261;28;20286;-69
2024/01/31 08:06:32;;;;;;;0.57;0.57;;;1.40;99.90;;;;;;5112598;28;20195;-70
2024/01/31 08:08:58;;;;;;;0.85;0.85;;;1.50;99.90;;;;;;5113088;28;20188;-70
2024/01/31 08:11:23;;;;;;;0.65;0.65;;;1.50;99.90;;;;;;5112853;28;20198;-70
2024/01/31 08:13:49;;;;;;;0.60;0.60;;;1.50;99.90;;;;;;5111670;28;20203;-70
2024/01/31 08:16:15;;;;;;;0.60;0.60;;;1.40;99.90;;;;;;5112895;28;20203;-71
2024/01/31 08:18:40;;;;;;;0.80;0.80;;;1.30;99.90;;;;;;5112728;28;20188;-70
2024/01/31 08:21:06;;;;;;;0.55;0.55;;;1.30;99.90;;;;;;5111612;28;20283;-71
2024/01/31 08:23:32;;;;;;;0.60;0.60;;;1.30;99.90;;;;;;5112639;28;20195;-70
2024/01/31 08:25:58;;;;;;;0.70;0.70;;;1.40;99.90;;;;;;5111649;28;20563;-70
2024/01/31 08:28:24;;;;;;;0.85;0.85;;;1.40;99.90;;;;;;5111587;28;20234;-73
2024/01/31 08:30:49;;;;;;;0.60;0.60;;;1.40;99.90;;;;;;5114678;28;20191;-69
2024/01/31 08:33:15;;;;;;;0.70;0.70;;;1.50;99.90;;;;;;5112773;28;20196;-71
2024/01/31 08:35:40;;;;;;;0.70;0.70;;;1.50;99.90;;;;;;5112535;28;20211;-70
2024/01/31 08:38:06;;;;;;;0.70;0.70;;;1.50;99.90;;;;;;5111579;28;20233;-71
2024/01/31 08:40:32;;;;;;;0.65;0.65;;;1.50;99.90;;;;;;5111226;28;20195;-71
2024/01/31 08:42:58;;;;;;;0.70;0.70;;;1.60;99.90;;;;;;5112783;28;20188;-70
2024/01/31 08:45:27;;;;;;;0.73;0.73;;;1.60;99.90;;;;;;5098458;28;20298;-71
2024/01/31 08:47:52;;;;;;;0.65;0.65;;;1.60;99.90;;;;;;5091013;28;20200;-72
2024/01/31 08:50:18;;;;;;;0.70;0.70;;;1.70;99.90;;;;;;5092125;28;20534;-71
2024/01/31 08:52:44;;;;;;;0.60;0.60;;;1.70;99.90;;;;;;5092398;28;20287;-70
2024/01/31 08:55:09;;;;;;;0.70;0.70;;;1.70;99.90;;;;;;5091979;28;20219;-70
2024/01/31 08:57:35;;;;;;;0.88;0.88;;;1.70;99.90;;;;;;5090763;28;20283;-71
2024/01/31 09:00:04;;;;;;;0.63;0.63;;;1.70;99.90;;;;;;5109147;28;20295;-70
2024/01/31 09:02:29;;;;;;;0.70;0.70;;;1.80;99.90;;;;;;5111025;28;20219;-71
2024/01/31 09:04:55;;;;;;;0.60;0.60;;;1.80;99.90;;;;;;5111174;28;20238;-71
2024/01/31 09:07:21;;;;;;;0.65;0.65;;;1.80;99.90;;;;;;5110975;28;20235;-70
2024/01/31 09:09:46;;;;;;;0.63;0.63;;;2.00;99.90;;;;;;5112429;28;20202;-71
2024/01/31 09:12:14;;;;;;;0.77;0.77;;;1.90;99.90;;;;;;5112619;28;20203;-70
2024/01/31 09:14:39;;;;;;;0.85;0.85;;;1.80;99.90;;;;;;5112303;28;20256;-70
2024/01/31 09:17:05;;;;;;;0.70;0.70;;;1.90;99.90;;;;;;5112572;28;20188;-70
2024/01/31 09:19:31;;;;;;;0.75;0.75;;;1.90;99.90;;;;;;5114668;28;20190;-69
2024/01/31 09:21:56;;;;;;;0.70;0.70;;;1.80;99.90;;;;;;5116111;28;20184;-70
2024/01/31 09:24:22;;;;;;;0.70;0.70;;;1.80;99.90;;;;;;5114360;28;20199;-69
2024/01/31 09:26:48;;;;;;;0.50;0.50;;;1.90;99.90;;;;;;5114578;28;20647;-70
2024/01/31 09:29:13;;;;;;;0.60;0.60;;;1.90;99.90;;;;;;5115810;28;20278;-70
2024/01/31 09:31:39;;;;;;;0.63;0.63;;;2.00;99.90;;;;;;5114394;28;20196;-70
2024/01/31 09:34:05;;;;;;;0.70;0.70;;;1.90;99.90;;;;;;5115773;28;20191;-71
2024/01/31 09:36:30;;;;;;;0.70;0.70;;;1.90;99.90;;;;;;5115921;28;20195;-70
2024/01/31 09:38:56;;;;;;;0.80;0.80;;;2.00;99.90;;;;;;5117231;28;20191;-73
2024/01/31 09:41:21;;;;;;;0.70;0.70;;;2.00;99.90;;;;;;5100516;28;20215;-73
2024/01/31 09:43:47;;;;;;;0.60;0.60;;;2.10;99.90;;;;;;5095644;28;20188;-73
2024/01/31 09:46:15;;;;;;;0.57;0.57;;;2.10;99.90;;;;;;5095753;28;20235;-73
2024/01/31 09:48:41;;;;;;;0.60;0.60;;;2.20;99.90;;;;;;5095900;28;20279;-73
2024/01/31 09:51:07;;;;;;;0.65;0.65;;;2.00;99.90;;;;;;5096071;28;20609;-73
2024/01/31 09:53:38;;;;;;;0.70;0.70;;;1.90;99.90;;;;;;5096029;28;20196;-73
2024/01/31 09:56:07;;;;;;;0.73;0.73;;;2.00;99.90;;;;;;5101681;28;20220;-73
2024/01/31 09:58:33;;;;;;;0.60;0.60;;;2.10;99.90;;;;;;5107220;28;20199;-72
2024/01/31 10:01:02;;;;;;;0.60;0.60;;;2.20;99.90;;;;;;5105488;28;20207;-72
2024/01/31 10:03:28;;;;;;;0.80;0.80;;;2.20;99.90;;;;;;5099522;28;20577;-74
2024/01/31 10:05:54;;;;;;;0.70;0.70;;;2.30;99.90;;;;;;5107875;28;20253;-73
2024/01/31 10:08:20;;;;;;;0.57;0.57;;;2.30;99.90;;;;;;5100396;28;20217;-73
2024/01/31 10:10:48;;;;;;;0.70;0.70;;;2.40;99.90;;;;;;5103372;28;20713;-73
2024/01/31 10:13:14;;;;;;;0.60;0.60;;;2.30;99.90;;;;;;5102652;28;20208;-74
2024/01/31 10:15:39;;;;;;;0.68;0.68;;;2.50;99.90;;;;;;5103225;28;20222;-73
2024/01/31 10:18:06;;;;;;;0.70;0.70;;;2.40;99.90;;;;;;5100721;28;20200;-73
2024/01/31 10:20:32;;;;;;;0.68;0.68;;;2.30;99.90;;;;;;5117167;28;20253;-73
2024/01/31 10:23:01;;;;;;;0.70;0.70;;;2.40;99.90;;;;;;5116354;28;20191;-73
2024/01/31 10:25:27;;;;;;;0.70;0.70;;;2.40;99.90;;;;;;5115810;28;20195;-73
2024/01/31 10:27:53;;;;;;;0.50;0.50;;;2.50;99.90;;;;;;5117412;28;20566;-73
2024/01/31 10:30:18;;;;;;;0.68;0.68;;;2.60;99.90;;;;;;5116400;28;20244;-71
2024/01/31 10:32:48;;;;;;;0.70;0.70;;;2.70;99.90;;;;;;5114878;28;20191;-72
2024/01/31 10:35:15;;;;;;;0.70;0.70;;;2.80;99.90;;;;;;5116411;28;20740;-73
2024/01/31 10:37:41;;;;;;;0.70;0.70;;;2.80;99.90;;;;;;5114554;28;20644;-72
2024/01/31 10:40:11;;;;;;;0.70;0.70;;;2.70;99.90;;;;;;5116214;28;20191;-73
2024/01/31 10:42:38;;;;;;;0.60;0.60;;;2.70;99.90;;;;;;5113649;28;20196;-72
2024/01/31 10:45:05;;;;;;;0.70;0.70;;;2.70;99.90;;;;;;5114831;28;20245;-72
2024/01/31 10:47:31;;;;;;;0.60;0.60;;;2.80;99.90;;;;;;5114230;28;20187;-74
2024/01/31 10:49:58;;;;;;;0.80;0.80;;;2.80;99.90;;;;;;5113264;28;20203;-74
2024/01/31 10:52:30;;;;;;;0.60;0.60;;;2.90;99.90;;;;;;5111522;28;20272;-74
2024/01/31 10:54:59;;;;;;;0.60;0.60;;;2.70;99.90;;;;;;5113024;28;20724;-74
2024/01/31 10:57:26;;;;;;;0.70;0.70;;;2.80;99.90;;;;;;5112955;28;20249;-75
2024/01/31 10:59:55;;;;;;;0.60;0.60;;;2.90;99.90;;;;;;5113296;28;20271;-75
2024/01/31 11:02:31;;;;;;;0.73;0.73;;;3.00;99.90;;;;;;5112620;28;20281;-75
2024/01/31 11:05:00;;;;;;;0.65;0.65;;;3.00;99.90;;;;;;5113061;28;20191;-75
2024/01/31 11:07:26;;;;;;;0.68;0.68;;;3.00;99.90;;;;;;5112472;28;20695;-75
2024/01/31 11:09:53;;;;;;;0.68;0.68;;;3.00;99.90;;;;;;5112633;28;20275;-74
2024/01/31 11:12:19;;;;;;;0.60;0.60;;;3.00;99.90;;;;;;5111336;28;20203;-74
2024/01/31 11:14:46;;;;;;;0.60;0.60;;;3.00;99.90;;;;;;5110989;28;20209;-75
2024/01/31 11:17:18;;;;;;;0.60;0.60;;;3.00;99.90;;;;;;5112667;28;20574;-75
2024/01/31 11:19:48;;;;;;;0.73;0.73;;;3.00;99.90;;;;;;5112660;28;20192;-75
2024/01/31 11:22:14;;;;;;;0.60;0.60;;;3.00;99.90;;;;;;5112503;28;20675;-75
2024/01/31 11:24:47;;;;;;;0.50;0.50;;;2.90;99.90;;;;;;5110969;28;20265;-75
2024/01/31 11:27:14;;;;;;;0.50;0.50;;;2.90;99.90;;;;;;5112484;28;20274;-75
2024/01/31 11:29:42;;;;;;;0.60;0.60;;;2.90;99.90;;;;;;5112169;28;20188;-75
2024/01/31 11:32:09;;;;;;;0.60;0.60;;;2.90;99.90;;;;;;5109817;28;20543;-75
2024/01/31 11:34:38;;;;;;;0.60;0.60;;;2.80;99.90;;;;;;5091602;28;20215;-75
2024/01/31 11:37:03;;;;;;;0.60;0.60;;;2.80;99.90;;;;;;5091908;28;20198;-75
2024/01/31 11:39:29;;;;;;;0.90;0.90;;;2.80;99.90;;;;;;5090332;28;20283;-75
2024/01/31 11:41:55;;;;;;;0.50;0.50;;;2.80;99.90;;;;;;5089877;28;20275;-75
2024/01/31 11:44:21;;;;;;;0.70;0.70;;;2.80;99.90;;;;;;5090257;28;20196;-75
2024/01/31 11:46:48;;;;;;;0.60;0.60;;;2.80;99.90;;;;;;5092390;28;20669;-74
2024/01/31 11:49:13;;;;;;;0.70;0.70;;;2.80;99.90;;;;;;5111844;28;20203;-75
2024/01/31 11:51:39;;;;;;;0.50;0.50;;;2.80;99.90;;;;;;5110737;28;20731;-75
2024/01/31 11:54:05;;;;;;;0.60;0.60;;;2.80;99.90;;;;;;5111969;28;20569;-75
2024/01/31 11:56:31;;;;;;;0.52;0.52;;;2.80;99.90;;;;;;5110473;28;20215;-74
2024/01/31 11:58:59;;;;;;;0.70;0.70;;;2.90;99.90;;;;;;5112396;28;20240;-74
2024/01/31 12:01:26;;;;;;;0.70;0.70;;;2.90;99.90;;;;;;5112045;28;20180;-74
2024/01/31 12:03:51;;;;;;;0.60;0.60;;;2.90;99.90;;;;;;5112111;28;20232;-73
2024/01/31 12:06:20;;;;;;;0.60;0.60;;;2.90;99.90;;;;;;5110672;28;20223;-74
2024/01/31 12:08:48;;;;;;;0.80;0.80;;;2.80;99.90;;;;;;5112099;28;20658;-74
2024/01/31 12:11:17;;;;;;;0.60;0.60;;;2.80;99.90;;;;;;5111654;28;20203;-74
2024/01/31 12:13:46;;;;;;;0.73;0.73;;;2.80;99.90;;;;;;5112028;28;20274;-73
2024/01/31 12:16:12;;;;;;;0.60;0.60;;;2.80;99.90;;;;;;5110586;28;20551;-73
2024/01/31 12:18:39;;;;;;;0.70;0.70;;;2.80;99.90;;;;;;5111708;28;20206;-74
2024/01/31 12:21:06;;;;;;;0.60;0.60;;;2.80;99.90;;;;;;5110637;28;20195;-73
2024/01/31 12:23:32;;;;;;;0.77;0.77;;;2.90;99.90;;;;;;5111545;28;20188;-75
2024/01/31 12:25:58;;;;;;;0.68;0.68;;;2.90;99.90;;;;;;5110544;28;20210;-75
2024/01/31 12:28:25;;;;;;;0.60;0.60;;;2.90;99.90;;;;;;5111923;28;20646;-73
2024/01/31 12:30:53;;;;;;;0.70;0.70;;;3.00;99.90;;;;;;5112056;28;20534;-75
2024/01/31 12:33:20;;;;;;;0.70;0.70;;;3.00;99.90;;;;;;5110608;28;20195;-75
2024/01/31 12:35:46;;;;;;;0.70;0.70;;;3.10;99.90;;;;;;5111857;28;20209;-75
2024/01/31 12:38:12;;;;;;;0.60;0.60;;;3.10;99.90;;;;;;5112125;28;20211;-74
2024/01/31 12:40:39;;;;;;;0.52;0.52;;;3.10;99.90;;;;;;5107613;28;20195;-73
2024/01/31 12:43:05;;;;;;;0.60;0.60;;;3.10;99.90;;;;;;5092540;28;20694;-75
2024/01/31 12:45:32;;;;;;;0.60;0.60;;;3.20;99.90;;;;;;5110681;28;20208;-74
2024/01/31 12:47:59;;;;;;;0.70;0.70;;;3.20;99.90;;;;;;5112646;28;20274;-73
2024/01/31 12:50:25;;;;;;;0.90;0.90;;;3.20;99.90;;;;;;5112052;28;20183;-73
2024/01/31 12:52:52;;;;;;;0.52;0.52;;;3.20;99.90;;;;;;5112317;28;20321;-75
2024/01/31 12:55:18;;;;;;;0.60;0.60;;;3.20;99.90;;;;;;5114148;28;20261;-74
2024/01/31 12:57:44;;;;;;;1.95;1.55;;;3.30;99.90;;;;;;5115787;28;20602;-74
2024/01/31 13:00:10;;;;;;;1.17;1.13;;;3.30;99.90;;;;;;5114350;28;20535;-75
2024/01/31 13:02:36;;;;;;;0.90;0.90;;;3.20;99.90;;;;;;5115975;28;20195;-74